Tampa, Florida
Current Conditions -  °F | °C
As of 2:53 PM on Sunday 23 Nov 2014 (Local Time) from KTPA Reporting Station
Scattered Clouds Scattered Clouds  
Wind Chill: 77°   Ceiling: Unl
Heat Index: 79°   Visibility: 10mi
Dew Point: 68°   Wind: 14mph
Humidity: 74%   Direction: 180°S
Pressure: 29.88"   Gusts: NA
Location:  27.95°N, 82.46°W
Report Text: KTPA 231953Z 18012KT 10SM FEW033 SCT280 25/20 A2988 RMK AO2 SLP117 T02500200
Loading
Personal Weather Stations






























Interactive Weather Map New forecast layout! Learn more

10-Day Weather Forecast

Advertisements
Track Severe Weather on mobile